Downstream station:
SHEF ID: NFSM7 N Fork Spring River nr Purcell, MO
STATION TYPE:
STAGE RIV-FLOW
ft cfs
Ccp-Rev Ccp-Rev
(US/Central)
04/12 00:00 6.42 1122
04/12 01:00 6.26 1047
04/12 02:00 6.12 980
04/12 03:00 5.98 916
04/12 04:00 5.82 845
04/12 05:00 5.68 785
04/12 06:00 5.57 740
04/12 07:00 5.45 692
04/12 08:00 5.34 649
04/12 09:00 5.26 618
04/12 10:00 5.17 585
04/12 11:00 5.10 560
04/12 12:00 5.04 539
04/12 13:00 4.97 514
04/12 14:00 4.92 497
04/12 15:00 4.86 477
04/12 16:00 4.81 461
04/12 17:00 4.77 448
04/12 18:00 4.73 435
04/12 19:00 4.69 423
04/12 20:00 4.65 411
04/12 21:00 4.61 398
04/12 22:00 4.57 386
04/12 23:00 4.55 381